Engenheiro Correia, Brazil
Current Conditions -  °F | °C
As of 7:34 PM on Friday 19 Dec 2014 (Local Time) from SBPR Reporting Station
Scattered Clouds Scattered Clouds  
Wind Chill: 81°   Ceiling: Unl
Heat Index: 82°   Visibility: 6mi
Dew Point: 64°   Wind: 8mph
Humidity: 58%   Direction: 230°SW
Pressure: 29.88"   Gusts: NA
Location:  20.33°S, 43.78°W
Report Text: SBPR 192134Z 23007KT 9999 SCT035 FEW040TCU 27/18 Q1012
Loading
Personal Weather Stations






























Interactive Weather Map New forecast layout! Learn more

10-Day Weather Forecast

Advertisements
Track Severe Weather on mobile